createdAt,value
2019-05-02T00:00:11.173Z,59
2019-05-02T00:01:13.300Z,57
2019-05-02T00:02:15.379Z,57
2019-05-02T00:03:17.522Z,57
2019-05-02T00:04:22.065Z,57
2019-05-02T00:05:33.738Z,57
2019-05-02T00:06:44.683Z,57
2019-05-02T00:07:46.765Z,58
2019-05-02T00:08:48.834Z,58
2019-05-02T00:09:51.687Z,59
2019-05-02T00:10:53.767Z,59
2019-05-02T00:11:59.810Z,59
2019-05-02T00:13:01.955Z,58
2019-05-02T00:14:04.026Z,59
2019-05-02T00:15:06.430Z,59
2019-05-02T00:16:15.896Z,58
2019-05-02T00:17:27.891Z,59
2019-05-02T00:18:39.883Z,59
2019-05-02T00:19:52.190Z,59
2019-05-02T00:21:03.632Z,59
2019-05-02T00:22:05.655Z,58
2019-05-02T00:23:08.123Z,58
2019-05-02T00:24:10.187Z,58
2019-05-02T00:25:18.315Z,59
2019-05-02T00:26:26.511Z,60
2019-05-02T00:27:32.707Z,59
2019-05-02T00:28:50.666Z,59
2019-05-02T00:30:00.827Z,59
2019-05-02T00:31:12.717Z,58
2019-05-02T00:32:24.536Z,58
2019-05-02T00:33:36.303Z,58
2019-05-02T00:34:38.354Z,59
2019-05-02T00:35:48.137Z,59
2019-05-02T00:36:50.224Z,59
2019-05-02T00:37:52.304Z,58
2019-05-02T00:38:54.331Z,58
2019-05-02T00:39:56.486Z,58
2019-05-02T00:41:04.360Z,57
2019-05-02T00:42:24.266Z,58
2019-05-02T00:43:37.557Z,59
2019-05-02T00:44:48.714Z,58
2019-05-02T00:45:54.901Z,58
2019-05-02T00:47:12.898Z,58
2019-05-02T00:48:19.189Z,59
2019-05-02T00:49:25.123Z,58
2019-05-02T00:50:27.201Z,59
2019-05-02T00:51:29.290Z,58
2019-05-02T00:52:38.233Z,58
2019-05-02T00:53:49.515Z,59
2019-05-02T00:55:00.297Z,59
2019-05-02T00:56:10.806Z,58
2019-05-02T00:57:22.207Z,59
2019-05-02T00:58:33.921Z,58
2019-05-02T00:59:44.017Z,57
2019-05-02T01:00:55.617Z,58
2019-05-02T01:02:07.705Z,58
2019-05-02T01:03:18.389Z,57
2019-05-02T01:04:29.446Z,59
2019-05-02T01:05:40.722Z,58
2019-05-02T01:06:51.571Z,58
2019-05-02T01:08:03.377Z,59
2019-05-02T01:09:13.481Z,59
2019-05-02T01:10:23.326Z,59
2019-05-02T01:11:33.878Z,59
2019-05-02T01:12:44.350Z,58
2019-05-02T01:13:58.174Z,57
2019-05-02T01:15:10.171Z,59
2019-05-02T01:16:20.795Z,59
2019-05-02T01:17:32.723Z,58
2019-05-02T01:18:42.980Z,58
2019-05-02T01:19:53.147Z,58
2019-05-02T01:21:04.608Z,58
2019-05-02T01:22:17.711Z,58
2019-05-02T01:23:29.970Z,59
2019-05-02T01:24:42.136Z,58
2019-05-02T01:25:54.983Z,59
2019-05-02T01:27:06.938Z,59
2019-05-02T01:28:19.271Z,58
2019-05-02T01:29:31.991Z,58
2019-05-02T01:30:44.707Z,59
2019-05-02T01:31:56.270Z,60
2019-05-02T01:33:08.184Z,60
2019-05-02T01:34:19.786Z,59
2019-05-02T01:35:22.103Z,59
2019-05-02T01:36:24.537Z,59
2019-05-02T01:37:26.627Z,59
2019-05-02T01:38:34.438Z,59
2019-05-02T01:39:44.514Z,58
2019-05-02T01:40:55.205Z,60
2019-05-02T01:42:05.834Z,60
2019-05-02T01:43:07.914Z,59
2019-05-02T01:44:10.266Z,61
2019-05-02T01:45:13.743Z,60
2019-05-02T01:46:24.609Z,60
2019-05-02T01:47:36.290Z,59
2019-05-02T01:48:48.125Z,59
2019-05-02T01:49:59.621Z,59
2019-05-02T01:51:12.639Z,59
2019-05-02T01:52:23.593Z,59
2019-05-02T01:53:36.259Z,60
2019-05-02T01:54:47.990Z,60
2019-05-02T01:55:59.882Z,60
2019-05-02T01:57:10.494Z,60
2019-05-02T01:58:23.353Z,60
2019-05-02T01:59:35.371Z,60
2019-05-02T02:00:46.564Z,60
2019-05-02T02:01:48.619Z,61
2019-05-02T02:02:55.469Z,61
2019-05-02T02:03:57.616Z,61
2019-05-02T02:04:59.685Z,60
2019-05-02T02:06:10.586Z,61
2019-05-02T02:07:22.057Z,59
2019-05-02T02:08:34.450Z,61
2019-05-02T02:09:46.250Z,61
2019-05-02T02:10:58.836Z,60
2019-05-02T02:12:09.681Z,61
2019-05-02T02:13:13.322Z,61
2019-05-02T02:14:19.964Z,61
2019-05-02T02:15:30.796Z,61
2019-05-02T02:16:41.015Z,60
2019-05-02T02:17:52.641Z,61
2019-05-02T02:19:03.916Z,61
2019-05-02T02:20:16.121Z,61
2019-05-02T02:21:28.041Z,61
2019-05-02T02:22:41.070Z,61
2019-05-02T02:23:51.429Z,61
2019-05-02T02:25:03.424Z,62
2019-05-02T02:26:14.675Z,62
2019-05-02T02:27:26.308Z,62
2019-05-02T02:28:33.839Z,61
2019-05-02T02:29:45.780Z,61
2019-05-02T02:30:47.814Z,61
2019-05-02T02:31:49.945Z,61
2019-05-02T02:32:52.426Z,62
2019-05-02T02:33:54.921Z,62
2019-05-02T02:35:09.864Z,62
2019-05-02T02:36:15.836Z,61
2019-05-02T02:37:18.211Z,62
2019-05-02T02:38:20.298Z,61
2019-05-02T02:39:23.714Z,62
2019-05-02T02:40:36.448Z,62
2019-05-02T02:41:39.209Z,62
2019-05-02T02:42:41.303Z,62
2019-05-02T02:43:43.775Z,62
2019-05-02T02:44:46.196Z,62
2019-05-02T02:46:00.530Z,62
2019-05-02T02:47:02.945Z,62
2019-05-02T02:48:05.043Z,62
2019-05-02T02:49:07.421Z,62
2019-05-02T02:50:15.796Z,63
2019-05-02T02:51:26.996Z,63
2019-05-02T02:52:30.145Z,62
2019-05-02T02:53:32.295Z,64
2019-05-02T02:54:45.658Z,63
2019-05-02T02:55:48.290Z,63
2019-05-02T02:56:51.370Z,62
2019-05-02T02:58:07.213Z,63
2019-05-02T02:59:09.973Z,62
2019-05-02T03:00:13.055Z,63
2019-05-02T03:01:31.806Z,63
2019-05-02T03:02:34.524Z,62
2019-05-02T03:03:36.783Z,63
2019-05-02T03:04:47.084Z,62
2019-05-02T03:05:49.464Z,64
2019-05-02T03:06:51.865Z,63
2019-05-02T03:08:06.895Z,64
2019-05-02T03:09:09.417Z,64
2019-05-02T03:10:11.786Z,63
2019-05-02T03:11:26.235Z,62
2019-05-02T03:12:28.723Z,63
2019-05-02T03:13:30.796Z,63
2019-05-02T03:14:32.916Z,62
2019-05-02T03:15:34.968Z,62
2019-05-02T03:16:50.206Z,64
2019-05-02T03:17:52.286Z,64
2019-05-02T03:18:55.054Z,64
2019-05-02T03:20:04.579Z,64
2019-05-02T03:21:07.271Z,63
2019-05-02T03:22:09.915Z,63
2019-05-02T03:23:24.728Z,64
2019-05-02T03:24:27.225Z,63
2019-05-02T03:25:52.262Z,63
2019-05-02T03:26:59.679Z,63
2019-05-02T03:28:02.173Z,63
2019-05-02T03:29:04.533Z,62
2019-05-02T03:30:06.962Z,63
2019-05-02T03:31:32.134Z,63
2019-05-02T03:32:37.711Z,64
2019-05-02T03:34:02.313Z,64
2019-05-02T03:35:05.068Z,64
2019-05-02T03:36:37.768Z,64
2019-05-02T03:37:54.016Z,63
2019-05-02T03:38:56.367Z,64
2019-05-02T03:40:01.509Z,64
2019-05-02T03:41:04.261Z,64
2019-05-02T03:42:06.717Z,64
2019-05-02T03:43:09.127Z,64
2019-05-02T03:44:27.507Z,64
2019-05-02T03:45:43.705Z,63
2019-05-02T03:46:45.825Z,64
2019-05-02T03:47:48.681Z,64
2019-05-02T03:48:51.301Z,64
2019-05-02T03:49:53.750Z,63
2019-05-02T03:50:56.527Z,63
2019-05-02T03:52:07.074Z,65
2019-05-02T03:53:09.115Z,64
2019-05-02T03:54:11.545Z,64
2019-05-02T03:55:14.901Z,65
2019-05-02T03:56:17.290Z,64
2019-05-02T03:57:42.340Z,64
2019-05-02T03:58:59.384Z,63
2019-05-02T04:00:01.745Z,63
2019-05-02T04:01:05.182Z,63
2019-05-02T04:02:07.562Z,65
2019-05-02T04:03:22.648Z,64
2019-05-02T04:04:25.076Z,63
2019-05-02T04:05:27.534Z,63
2019-05-02T04:06:36.243Z,64
2019-05-02T04:07:43.408Z,63
2019-05-02T04:08:46.297Z,64
2019-05-02T04:09:48.355Z,63
2019-05-02T04:11:02.277Z,62
2019-05-02T04:12:05.411Z,63
2019-05-02T04:13:23.645Z,63
2019-05-02T04:14:40.159Z,64
2019-05-02T04:15:42.868Z,64
2019-05-02T04:16:58.032Z,65
2019-05-02T04:18:00.102Z,66
2019-05-02T04:19:02.787Z,66
2019-05-02T04:20:13.483Z,65
2019-05-02T04:21:16.137Z,64
2019-05-02T04:22:18.222Z,64
2019-05-02T04:23:30.348Z,65
2019-05-02T04:24:32.445Z,64
2019-05-02T04:25:36.185Z,64
2019-05-02T04:26:38.216Z,65
2019-05-02T04:27:40.587Z,66
2019-05-02T04:28:54.118Z,66
2019-05-02T04:29:56.492Z,65
2019-05-02T04:30:59.253Z,66
2019-05-02T04:32:15.117Z,64
2019-05-02T04:33:17.443Z,66
2019-05-02T04:34:19.584Z,65
2019-05-02T04:35:22.346Z,66
2019-05-02T04:36:24.702Z,65
2019-05-02T04:37:27.458Z,65
2019-05-02T04:38:53.110Z,65
2019-05-02T04:40:12.750Z,65
2019-05-02T04:41:34.695Z,67
2019-05-02T04:42:40.888Z,67
2019-05-02T04:44:02.615Z,67
2019-05-02T04:46:00.098Z,66
2019-05-02T04:47:23.050Z,66
2019-05-02T04:48:28.273Z,66
2019-05-02T04:49:39.949Z,66
2019-05-02T04:50:42.417Z,67
2019-05-02T04:52:18.116Z,67
2019-05-02T04:53:50.170Z,67
2019-05-02T04:54:52.743Z,67
2019-05-02T04:56:11.750Z,67
2019-05-02T04:57:14.186Z,68
2019-05-02T04:58:41.000Z,67
2019-05-02T04:59:43.094Z,67
2019-05-02T05:01:02.263Z,66
2019-05-02T05:02:05.163Z,67
2019-05-02T05:03:21.792Z,67
2019-05-02T05:04:24.557Z,66
2019-05-02T05:05:32.492Z,67
2019-05-02T05:06:34.583Z,67
2019-05-02T05:07:50.256Z,66
2019-05-02T05:08:52.679Z,66
2019-05-02T05:10:04.904Z,65
2019-05-02T05:11:08.605Z,67
2019-05-02T05:12:10.738Z,66
2019-05-02T05:13:29.228Z,67
2019-05-02T05:14:43.997Z,66
2019-05-02T05:15:52.750Z,65
2019-05-02T05:16:58.770Z,65
2019-05-02T05:18:15.064Z,66
2019-05-02T05:19:22.914Z,66
2019-05-02T05:20:40.573Z,65
2019-05-02T05:21:42.703Z,67
2019-05-02T05:22:48.495Z,66
2019-05-02T05:24:02.426Z,66
2019-05-02T05:25:04.804Z,65
2019-05-02T05:26:09.364Z,65
2019-05-02T05:27:23.426Z,65
2019-05-02T05:28:27.610Z,66
2019-05-02T05:29:30.056Z,67
2019-05-02T05:30:32.158Z,66
2019-05-02T05:31:34.284Z,65
2019-05-02T05:32:38.767Z,64
2019-05-02T05:33:40.843Z,65
2019-05-02T05:34:42.987Z,65
2019-05-02T05:35:53.660Z,64
2019-05-02T05:36:58.180Z,64
2019-05-02T05:38:00.370Z,64
2019-05-02T05:39:12.213Z,65
2019-05-02T05:40:14.278Z,65
2019-05-02T05:41:23.924Z,65
2019-05-02T05:42:34.482Z,65
2019-05-02T05:43:39.125Z,65
2019-05-02T05:44:41.216Z,65
2019-05-02T05:46:13.566Z,65
2019-05-02T05:47:22.098Z,65
2019-05-02T05:48:24.451Z,64
2019-05-02T05:49:29.425Z,65
2019-05-02T05:50:41.930Z,64
2019-05-02T05:51:44.020Z,65
2019-05-02T05:52:48.051Z,64
2019-05-02T05:54:03.607Z,64
2019-05-02T05:55:12.667Z,64
2019-05-02T05:56:22.730Z,63
2019-05-02T05:57:24.811Z,64
2019-05-02T05:58:29.220Z,64
2019-05-02T05:59:33.023Z,63
2019-05-02T06:00:35.082Z,63
2019-05-02T06:01:39.905Z,63
2019-05-02T06:03:14.506Z,64
2019-05-02T06:04:33.600Z,63
2019-05-02T06:05:42.914Z,62
2019-05-02T06:06:44.976Z,63
2019-05-02T06:07:48.317Z,63
2019-05-02T06:08:56.100Z,63
2019-05-02T06:10:10.385Z,65
2019-05-02T06:11:22.264Z,64
2019-05-02T06:12:36.522Z,63
2019-05-02T06:13:50.970Z,63
2019-05-02T06:15:04.237Z,62
2019-05-02T06:16:16.834Z,63
2019-05-02T06:17:30.426Z,63
2019-05-02T06:18:44.149Z,62
2019-05-02T06:19:55.864Z,62
2019-05-02T06:21:11.022Z,62
2019-05-02T06:22:26.112Z,63
2019-05-02T06:23:42.282Z,64
2019-05-02T06:24:52.600Z,64
2019-05-02T06:25:54.675Z,62
2019-05-02T06:26:57.038Z,63
2019-05-02T06:28:07.212Z,63
2019-05-02T06:29:21.722Z,62
2019-05-02T06:30:32.794Z,62
2019-05-02T06:31:44.883Z,63
2019-05-02T06:32:57.083Z,63
2019-05-02T06:34:08.800Z,63
2019-05-02T06:35:10.842Z,64
2019-05-02T06:36:12.971Z,63
2019-05-02T06:37:16.599Z,61
2019-05-02T06:38:23.577Z,61
2019-05-02T06:39:34.044Z,62
2019-05-02T06:40:47.080Z,61
2019-05-02T06:41:59.129Z,61
2019-05-02T06:43:11.852Z,60
2019-05-02T06:44:25.188Z,60
2019-05-02T06:45:27.423Z,59
2019-05-02T06:46:30.585Z,61
2019-05-02T06:47:44.095Z,61
2019-05-02T06:48:54.466Z,61
2019-05-02T06:50:03.768Z,61
2019-05-02T06:51:21.088Z,60
2019-05-02T06:52:34.861Z,60
2019-05-02T06:53:46.922Z,60
2019-05-02T06:54:59.597Z,60
2019-05-02T06:56:02.113Z,60
2019-05-02T06:57:04.211Z,59
2019-05-02T06:58:09.296Z,60
2019-05-02T06:59:20.752Z,61
2019-05-02T07:00:59.394Z,60
2019-05-02T07:02:01.711Z,60
2019-05-02T07:03:12.112Z,60
2019-05-02T07:04:25.750Z,60
2019-05-02T07:05:29.290Z,60
2019-05-02T07:07:00.714Z,60
2019-05-02T07:08:14.991Z,61
2019-05-02T07:09:17.382Z,61
2019-05-02T07:10:43.566Z,61
2019-05-02T07:12:02.252Z,61
2019-05-02T07:13:16.692Z,61
2019-05-02T07:14:26.003Z,61
2019-05-02T07:15:28.517Z,61
2019-05-02T07:16:39.798Z,61
2019-05-02T07:17:41.878Z,62
2019-05-02T07:18:50.742Z,62
2019-05-02T07:19:52.835Z,61
2019-05-02T07:20:54.909Z,62
2019-05-02T07:22:05.042Z,62
2019-05-02T07:23:18.822Z,61
2019-05-02T07:24:25.129Z,61
2019-05-02T07:25:34.307Z,62
2019-05-02T07:26:36.415Z,62
2019-05-02T07:27:40.148Z,61
2019-05-02T07:28:48.199Z,61
2019-05-02T07:30:00.068Z,62
2019-05-02T07:31:11.840Z,61
2019-05-02T07:32:27.185Z,62
2019-05-02T07:33:39.223Z,63
2019-05-02T07:34:49.931Z,61
2019-05-02T07:36:02.198Z,61
2019-05-02T07:37:14.196Z,61
2019-05-02T07:38:27.796Z,61
2019-05-02T07:39:30.143Z,61
2019-05-02T07:40:32.227Z,61
2019-05-02T07:41:38.100Z,61
2019-05-02T07:42:44.234Z,62
2019-05-02T07:43:46.352Z,62
2019-05-02T07:44:48.446Z,62
2019-05-02T07:45:50.600Z,61
2019-05-02T07:47:05.015Z,61
2019-05-02T07:48:07.079Z,61
2019-05-02T07:49:09.256Z,60
2019-05-02T07:50:12.744Z,59
2019-05-02T07:51:23.116Z,59
2019-05-02T07:52:35.141Z,60
2019-05-02T07:53:38.721Z,60
2019-05-02T07:54:40.812Z,58
2019-05-02T07:55:43.617Z,58
2019-05-02T07:56:55.014Z,59
2019-05-02T07:57:57.062Z,59
2019-05-02T07:58:59.204Z,60
2019-05-02T08:00:03.500Z,59
2019-05-02T08:01:15.726Z,59
2019-05-02T08:02:26.830Z,59
2019-05-02T08:03:35.650Z,59
2019-05-02T08:04:37.749Z,60
2019-05-02T08:05:39.836Z,59
2019-05-02T08:06:47.108Z,59
2019-05-02T08:07:55.918Z,60
2019-05-02T08:09:09.649Z,59
2019-05-02T08:10:16.203Z,59
2019-05-02T08:11:18.659Z,59
2019-05-02T08:12:20.750Z,59
2019-05-02T08:13:22.890Z,60
2019-05-02T08:14:34.464Z,59
2019-05-02T08:15:38.308Z,60
2019-05-02T08:16:40.778Z,60
2019-05-02T08:17:42.843Z,59
2019-05-02T08:18:44.988Z,59
2019-05-02T08:19:47.050Z,60
2019-05-02T08:20:57.834Z,60
2019-05-02T08:22:12.884Z,60
2019-05-02T08:23:28.299Z,60
2019-05-02T08:24:39.755Z,59
2019-05-02T08:25:47.156Z,60
2019-05-02T08:26:58.183Z,61
2019-05-02T08:28:04.969Z,61
2019-05-02T08:29:17.537Z,59
2019-05-02T08:30:19.603Z,59
2019-05-02T08:31:21.926Z,59
2019-05-02T08:32:24.013Z,59
2019-05-02T08:33:37.071Z,60
2019-05-02T08:34:39.102Z,59
2019-05-02T08:35:41.193Z,58
2019-05-02T08:36:43.322Z,59
2019-05-02T08:37:45.345Z,60
2019-05-02T08:38:55.801Z,59
2019-05-02T08:39:57.880Z,61
2019-05-02T08:41:00.343Z,60
2019-05-02T08:42:02.433Z,61
2019-05-02T08:43:11.923Z,60
2019-05-02T08:44:18.826Z,60
2019-05-02T08:45:20.912Z,60
2019-05-02T08:46:23.023Z,60
2019-05-02T08:47:31.253Z,59
2019-05-02T08:48:44.202Z,60
2019-05-02T08:49:57.143Z,60
2019-05-02T08:50:59.223Z,58
2019-05-02T08:52:01.694Z,60
2019-05-02T08:53:03.785Z,60
2019-05-02T08:54:05.892Z,59
2019-05-02T08:55:11.752Z,59
2019-05-02T08:56:23.283Z,59
2019-05-02T08:57:25.557Z,59
2019-05-02T08:58:27.683Z,60
2019-05-02T08:59:29.828Z,60
2019-05-02T09:00:40.169Z,60
2019-05-02T09:01:52.168Z,59
2019-05-02T09:03:05.501Z,60
2019-05-02T09:04:07.599Z,60
2019-05-02T09:05:09.672Z,61
2019-05-02T09:06:11.791Z,62
2019-05-02T09:07:14.176Z,62
2019-05-02T09:08:17.546Z,62
2019-05-02T09:09:30.003Z,62
2019-05-02T09:10:32.335Z,61
2019-05-02T09:11:34.746Z,61
2019-05-02T09:12:45.987Z,61
2019-05-02T09:13:48.080Z,62
2019-05-02T09:14:52.653Z,61
2019-05-02T09:15:56.075Z,61
2019-05-02T09:17:17.012Z,61
2019-05-02T09:18:19.039Z,62
2019-05-02T09:19:27.142Z,61
2019-05-02T09:20:29.241Z,61
2019-05-02T09:21:36.730Z,62
2019-05-02T09:22:39.102Z,62
2019-05-02T09:23:44.723Z,61
2019-05-02T09:24:46.796Z,61
2019-05-02T09:25:48.945Z,62
2019-05-02T09:26:53.207Z,61
2019-05-02T09:27:55.306Z,60
2019-05-02T09:29:06.618Z,61
2019-05-02T09:30:08.674Z,61
2019-05-02T09:31:12.881Z,60
2019-05-02T09:32:26.991Z,60
2019-05-02T09:33:29.116Z,61
2019-05-02T09:34:33.185Z,62
2019-05-02T09:35:35.327Z,62
2019-05-02T09:36:39.072Z,61
2019-05-02T09:37:42.773Z,61
2019-05-02T09:38:57.635Z,61
2019-05-02T09:40:02.379Z,61
2019-05-02T09:41:26.778Z,62
2019-05-02T09:42:38.093Z,60
2019-05-02T09:43:42.273Z,62
2019-05-02T09:44:57.491Z,62
2019-05-02T09:45:59.859Z,62
2019-05-02T09:47:04.457Z,61
2019-05-02T09:48:09.304Z,61
2019-05-02T09:49:17.311Z,61
2019-05-02T09:50:38.532Z,62
2019-05-02T09:51:59.413Z,62
2019-05-02T09:53:05.200Z,62
2019-05-02T09:54:07.914Z,61
2019-05-02T09:55:12.357Z,61
2019-05-02T09:56:14.523Z,60
2019-05-02T09:57:16.599Z,61
2019-05-02T09:58:25.017Z,61
2019-05-02T09:59:33.979Z,61
2019-05-02T10:00:37.233Z,61
2019-05-02T10:01:39.633Z,62
2019-05-02T10:02:44.048Z,62
2019-05-02T10:03:46.196Z,62
2019-05-02T10:04:48.677Z,61
2019-05-02T10:05:53.142Z,61
2019-05-02T10:06:55.516Z,61
2019-05-02T10:08:13.801Z,62
2019-05-02T10:09:27.865Z,62
2019-05-02T10:10:32.087Z,62
2019-05-02T10:11:34.480Z,61
2019-05-02T10:12:36.525Z,61
2019-05-02T10:13:38.701Z,61
2019-05-02T10:14:42.933Z,61
2019-05-02T10:15:45.318Z,62
2019-05-02T10:16:47.437Z,63
2019-05-02T10:17:49.485Z,61
2019-05-02T10:18:53.771Z,62
2019-05-02T10:19:58.088Z,62
2019-05-02T10:21:00.232Z,61
2019-05-02T10:22:02.835Z,60
2019-05-02T10:23:05.286Z,59
2019-05-02T10:24:07.664Z,60
2019-05-02T10:25:11.893Z,60
2019-05-02T10:26:26.018Z,62
2019-05-02T10:27:28.211Z,61
2019-05-02T10:28:32.788Z,61
2019-05-02T10:29:34.858Z,61
2019-05-02T10:30:37.303Z,61
2019-05-02T10:31:42.523Z,62
2019-05-02T10:32:57.903Z,62
2019-05-02T10:34:02.489Z,61
2019-05-02T10:35:05.550Z,61
2019-05-02T10:36:24.302Z,61
2019-05-02T10:37:42.822Z,62
2019-05-02T10:38:59.282Z,62
2019-05-02T10:40:17.565Z,61
2019-05-02T10:41:19.737Z,62
2019-05-02T10:42:23.201Z,62
2019-05-02T10:43:25.629Z,62
2019-05-02T10:44:37.376Z,63
2019-05-02T10:45:39.731Z,63
2019-05-02T10:46:42.504Z,62
2019-05-02T10:47:44.581Z,62
2019-05-02T10:48:46.675Z,63
2019-05-02T10:49:49.020Z,63
2019-05-02T10:50:53.533Z,64
2019-05-02T10:51:55.567Z,63
2019-05-02T10:52:57.691Z,63
2019-05-02T10:53:59.777Z,63
2019-05-02T10:55:03.546Z,63
2019-05-02T10:56:06.051Z,64
2019-05-02T10:57:08.134Z,64
2019-05-02T10:58:12.553Z,63
2019-05-02T10:59:14.902Z,63
2019-05-02T11:00:16.975Z,62
2019-05-02T11:01:19.346Z,62
2019-05-02T11:02:23.087Z,63
2019-05-02T11:03:25.220Z,64
2019-05-02T11:04:32.252Z,64
2019-05-02T11:05:37.930Z,63
2019-05-02T11:06:47.011Z,63
2019-05-02T11:07:49.095Z,61
2019-05-02T11:08:53.616Z,62
2019-05-02T11:10:07.271Z,62
2019-05-02T11:11:09.354Z,63
2019-05-02T11:12:41.767Z,62
2019-05-02T11:14:05.769Z,62
2019-05-02T11:15:07.958Z,63
2019-05-02T11:16:12.156Z,62
2019-05-02T11:17:19.019Z,62
2019-05-02T11:18:45.496Z,61
2019-05-02T11:19:47.534Z,61
2019-05-02T11:20:49.903Z,61
2019-05-02T11:21:59.866Z,61
2019-05-02T11:23:03.663Z,62
2019-05-02T11:24:05.739Z,61
2019-05-02T11:25:07.852Z,62
2019-05-02T11:26:25.296Z,62
2019-05-02T11:27:27.517Z,62
2019-05-02T11:28:29.661Z,62
2019-05-02T11:29:33.103Z,61
2019-05-02T11:30:35.574Z,61
2019-05-02T11:31:37.746Z,60
2019-05-02T11:32:41.870Z,60
2019-05-02T11:33:43.986Z,60
2019-05-02T11:34:46.081Z,59
2019-05-02T11:35:54.175Z,58
2019-05-02T11:36:56.277Z,59
2019-05-02T11:37:58.648Z,60
2019-05-02T11:39:50.266Z,59
2019-05-02T11:41:03.704Z,60
2019-05-02T11:42:07.150Z,60
2019-05-02T11:43:09.249Z,60
2019-05-02T11:44:13.525Z,61
2019-05-02T11:45:15.643Z,60
2019-05-02T11:46:17.808Z,61
2019-05-02T11:47:27.341Z,61
2019-05-02T11:48:29.418Z,61
2019-05-02T11:49:32.874Z,61
2019-05-02T11:50:36.657Z,61
2019-05-02T11:51:38.729Z,60
2019-05-02T11:52:43.034Z,61
2019-05-02T11:53:45.183Z,61
2019-05-02T11:54:49.596Z,62
2019-05-02T11:56:03.519Z,61
2019-05-02T11:57:12.620Z,61
2019-05-02T11:58:15.114Z,62
2019-05-02T11:59:32.131Z,61
2019-05-02T12:00:34.185Z,60
2019-05-02T12:02:02.243Z,60
2019-05-02T12:03:05.106Z,60
2019-05-02T12:04:17.544Z,61
2019-05-02T12:05:19.586Z,60
2019-05-02T12:06:24.236Z,60
2019-05-02T12:07:26.326Z,61
2019-05-02T12:08:28.453Z,61
2019-05-02T12:09:32.713Z,61
2019-05-02T12:10:37.579Z,60
2019-05-02T12:11:41.671Z,61
2019-05-02T12:12:43.932Z,61
2019-05-02T12:13:57.574Z,60
2019-05-02T12:14:59.698Z,59
2019-05-02T12:16:03.569Z,61
2019-05-02T12:17:06.004Z,61
2019-05-02T12:18:08.157Z,61
2019-05-02T12:19:15.683Z,61
2019-05-02T12:20:18.114Z,60
2019-05-02T12:21:22.624Z,60
2019-05-02T12:22:25.085Z,59
2019-05-02T12:23:27.309Z,60
2019-05-02T12:24:29.422Z,61
2019-05-02T12:25:34.093Z,60
2019-05-02T12:26:36.204Z,60
2019-05-02T12:27:38.966Z,61
2019-05-02T12:28:43.226Z,62
2019-05-02T12:29:45.310Z,61
2019-05-02T12:31:07.937Z,60
2019-05-02T12:32:18.435Z,62
2019-05-02T12:33:22.655Z,61
2019-05-02T12:34:24.725Z,61
2019-05-02T12:35:27.115Z,61
2019-05-02T12:36:29.640Z,62
2019-05-02T12:37:33.553Z,61
2019-05-02T12:38:35.693Z,61
2019-05-02T12:39:37.756Z,61
2019-05-02T12:40:39.851Z,61
2019-05-02T12:41:46.139Z,60
2019-05-02T12:42:49.202Z,60
2019-05-02T12:43:53.541Z,62
2019-05-02T12:44:55.626Z,61
2019-05-02T12:45:57.768Z,61
2019-05-02T12:46:59.844Z,61
2019-05-02T12:48:03.295Z,62
2019-05-02T12:49:05.706Z,61
2019-05-02T12:50:07.779Z,61
2019-05-02T12:51:09.936Z,61
2019-05-02T12:52:13.807Z,62
2019-05-02T12:53:15.936Z,61
2019-05-02T12:54:18.010Z,61
2019-05-02T12:55:22.300Z,61
2019-05-02T12:56:24.442Z,61
2019-05-02T12:57:26.527Z,60
2019-05-02T12:58:28.676Z,60
2019-05-02T12:59:33.035Z,60
2019-05-02T13:00:35.101Z,60
2019-05-02T13:01:37.194Z,59
2019-05-02T13:02:41.235Z,60
2019-05-02T13:03:44.534Z,61
2019-05-02T13:04:46.626Z,61
2019-05-02T13:05:48.799Z,61
2019-05-02T13:06:53.271Z,61
2019-05-02T13:07:56.372Z,60
2019-05-02T13:08:58.543Z,60
2019-05-02T13:10:03.031Z,61
2019-05-02T13:11:08.042Z,61
2019-05-02T13:12:10.126Z,61
2019-05-02T13:13:16.346Z,61
2019-05-02T13:14:22.823Z,61
2019-05-02T13:15:25.356Z,59
2019-05-02T13:16:27.531Z,60
2019-05-02T13:17:35.568Z,60
2019-05-02T13:18:52.801Z,60
2019-05-02T13:20:08.510Z,60
2019-05-02T13:21:23.396Z,61
2019-05-02T13:22:25.611Z,60
2019-05-02T13:23:37.671Z,60
2019-05-02T13:24:39.749Z,60
2019-05-02T13:25:43.612Z,59
2019-05-02T13:26:45.756Z,60
2019-05-02T13:27:49.032Z,61
2019-05-02T13:28:52.599Z,61
2019-05-02T13:29:54.671Z,61
2019-05-02T13:30:57.344Z,62
2019-05-02T13:32:01.479Z,61
2019-05-02T13:33:03.753Z,61
2019-05-02T13:34:15.695Z,60
2019-05-02T13:35:17.768Z,61
2019-05-02T13:36:21.880Z,61
2019-05-02T13:37:23.962Z,61
2019-05-02T13:38:26.049Z,61
2019-05-02T13:39:28.165Z,62
2019-05-02T13:40:32.927Z,62
2019-05-02T13:41:35.616Z,62
2019-05-02T13:42:38.098Z,62
2019-05-02T13:43:42.226Z,61
2019-05-02T13:44:44.370Z,62
2019-05-02T13:45:46.746Z,62
2019-05-02T13:46:48.833Z,62
2019-05-02T13:47:52.797Z,62
2019-05-02T13:48:55.212Z,61
2019-05-02T13:50:04.641Z,62
2019-05-02T13:51:07.046Z,62
2019-05-02T13:52:09.196Z,62
2019-05-02T13:53:13.056Z,62
2019-05-02T13:54:15.138Z,62
2019-05-02T13:55:17.275Z,61
2019-05-02T13:56:19.351Z,62
2019-05-02T13:57:22.726Z,62
2019-05-02T13:58:34.114Z,63
2019-05-02T13:59:36.147Z,64
2019-05-02T14:00:38.579Z,63
2019-05-02T14:01:42.689Z,63
2019-05-02T14:02:44.824Z,61
2019-05-02T14:03:46.907Z,61
2019-05-02T14:04:49.424Z,63
2019-05-02T14:05:54.936Z,62
2019-05-02T14:06:57.016Z,61
2019-05-02T14:07:59.494Z,61
2019-05-02T14:09:22.449Z,63
2019-05-02T14:10:24.683Z,62
2019-05-02T14:11:26.755Z,63
2019-05-02T14:12:28.833Z,63
2019-05-02T14:13:32.475Z,63
2019-05-02T14:14:34.544Z,63
2019-05-02T14:15:36.689Z,62
2019-05-02T14:16:39.135Z,63
2019-05-02T14:17:43.103Z,62
2019-05-02T14:18:45.212Z,63
2019-05-02T14:19:47.296Z,63
2019-05-02T14:20:49.422Z,64
2019-05-02T14:21:52.746Z,63
2019-05-02T14:22:54.886Z,61
2019-05-02T14:23:56.958Z,61
2019-05-02T14:24:59.036Z,62
2019-05-02T14:26:02.879Z,62
2019-05-02T14:27:17.654Z,61
2019-05-02T14:28:19.732Z,62
2019-05-02T14:29:22.602Z,62
2019-05-02T14:30:47.043Z,62
2019-05-02T14:31:49.091Z,62
2019-05-02T14:32:53.145Z,61
2019-05-02T14:33:55.490Z,61
2019-05-02T14:34:57.579Z,62
2019-05-02T14:36:01.598Z,62
2019-05-02T14:37:04.139Z,63
2019-05-02T14:38:06.287Z,64
2019-05-02T14:39:08.359Z,64
2019-05-02T14:40:12.476Z,64
2019-05-02T14:41:14.832Z,65
2019-05-02T14:42:27.619Z,65
2019-05-02T14:43:31.809Z,66
2019-05-02T14:45:33.994Z,66
2019-05-02T14:46:42.306Z,66
2019-05-02T14:47:44.620Z,66
2019-05-02T14:48:47.116Z,65
2019-05-02T14:49:49.477Z,65
2019-05-02T14:50:52.922Z,65
2019-05-02T14:52:07.604Z,65
2019-05-02T14:53:11.853Z,67
2019-05-02T14:54:14.079Z,65
2019-05-02T14:55:29.523Z,66
2019-05-02T14:56:48.054Z,65
2019-05-02T14:57:52.401Z,67
2019-05-02T14:58:59.089Z,67
2019-05-02T15:00:04.445Z,66
2019-05-02T15:01:06.587Z,66
2019-05-02T15:02:08.754Z,66
2019-05-02T15:03:13.240Z,66
2019-05-02T15:04:15.338Z,65
2019-05-02T15:05:30.255Z,64
2019-05-02T15:06:47.842Z,65
2019-05-02T15:07:56.700Z,65
2019-05-02T15:09:08.616Z,64
2019-05-02T15:10:12.755Z,64
2019-05-02T15:11:14.853Z,65
2019-05-02T15:12:22.078Z,65
2019-05-02T15:13:24.348Z,65
2019-05-02T15:14:28.627Z,66
2019-05-02T15:15:43.916Z,66
2019-05-02T15:16:58.698Z,65
2019-05-02T15:18:03.298Z,65
2019-05-02T15:19:05.414Z,66
2019-05-02T15:20:07.483Z,66
2019-05-02T15:21:17.303Z,64
2019-05-02T15:22:19.777Z,64
2019-05-02T15:23:23.612Z,64
2019-05-02T15:24:38.825Z,65
2019-05-02T15:25:56.102Z,65
2019-05-02T15:26:58.250Z,64
2019-05-02T15:28:03.221Z,64
2019-05-02T15:29:27.489Z,63
2019-05-02T15:30:29.643Z,64
2019-05-02T15:31:35.082Z,64
2019-05-02T15:32:47.002Z,64
2019-05-02T15:33:49.075Z,63
2019-05-02T15:34:53.290Z,64
2019-05-02T15:36:08.059Z,64
2019-05-02T15:37:12.318Z,65
2019-05-02T15:38:28.908Z,65
2019-05-02T15:41:33.566Z,65
2019-05-02T15:42:35.662Z,66
2019-05-02T15:43:49.663Z,65
2019-05-02T15:45:05.524Z,65
2019-05-02T15:46:08.204Z,65
2019-05-02T15:47:10.303Z,65
2019-05-02T15:48:28.703Z,65
2019-05-02T15:49:45.105Z,64
2019-05-02T15:51:09.347Z,64
2019-05-02T15:52:13.365Z,65
2019-05-02T15:53:15.452Z,66
2019-05-02T15:54:23.195Z,66
2019-05-02T15:55:25.241Z,66
2019-05-02T15:56:27.797Z,65
2019-05-02T15:57:49.687Z,65
2019-05-02T15:58:53.516Z,65
2019-05-02T16:00:02.557Z,65
2019-05-02T16:01:05.846Z,66